createdAt,value
2018-03-27T00:01:10.636Z,83.59
2018-03-27T00:02:10.634Z,83.50
2018-03-27T00:04:03.530Z,83.31
2018-03-27T00:05:03.542Z,83.03
2018-03-27T00:06:56.455Z,83.59
2018-03-27T00:08:03.572Z,83.40
2018-03-27T00:09:49.365Z,83.88
2018-03-27T00:10:49.361Z,83.40
2018-03-27T00:12:42.261Z,83.59
2018-03-27T00:13:42.275Z,83.88
2018-03-27T00:15:35.190Z,83.03
2018-03-27T00:16:35.186Z,83.03
2018-03-27T00:18:28.085Z,82.46
2018-03-27T00:19:28.100Z,82.84
2018-03-27T00:21:21.011Z,82.46
2018-03-27T00:22:28.128Z,82.46
2018-03-27T00:24:21.021Z,82.46
2018-03-27T00:25:13.920Z,82.84
2018-03-27T00:27:06.837Z,83.03
2018-03-27T00:28:06.837Z,83.50
2018-03-27T00:29:59.753Z,83.78
2018-03-27T00:30:59.748Z,82.74
2018-03-27T00:32:52.644Z,83.03
2018-03-27T00:33:52.665Z,83.03
2018-03-27T00:35:45.571Z,83.03
2018-03-27T00:36:45.566Z,83.03
2018-03-27T00:38:38.464Z,83.12
2018-03-27T00:39:38.477Z,82.93
2018-03-27T00:41:31.391Z,83.03
2018-03-27T00:42:31.387Z,83.12
2018-03-27T00:44:24.288Z,83.12
2018-03-27T00:45:24.298Z,82.93
2018-03-27T00:47:17.211Z,83.03
2018-03-27T00:48:17.207Z,83.12
2018-03-27T00:50:10.281Z,83.88
2018-03-27T00:51:10.279Z,83.88
2018-03-27T00:53:03.178Z,83.78
2018-03-27T00:54:03.194Z,83.12
2018-03-27T00:55:56.112Z,83.03
2018-03-27T00:56:56.112Z,83.17
2018-03-27T00:58:49.007Z,83.65
2018-03-27T00:59:49.024Z,83.36
2018-03-27T01:01:41.942Z,83.84
2018-03-27T01:02:41.935Z,84.12
2018-03-27T01:04:34.867Z,84.12
2018-03-27T01:05:34.853Z,84.50
2018-03-27T01:07:27.763Z,84.98
2018-03-27T01:08:27.763Z,84.78
2018-03-27T01:10:20.671Z,84.59
2018-03-27T01:11:20.672Z,84.59
2018-03-27T01:13:13.564Z,84.88
2018-03-27T01:14:13.579Z,84.88
2018-03-27T01:16:06.491Z,84.78
2018-03-27T01:17:06.489Z,84.59
2018-03-27T01:18:59.385Z,85.64
2018-03-27T01:19:59.455Z,85.55
2018-03-27T01:21:52.313Z,85.64
2018-03-27T01:22:52.308Z,85.74
2018-03-27T01:24:45.203Z,86.02
2018-03-27T01:25:45.217Z,85.64
2018-03-27T01:27:38.130Z,86.07
2018-03-27T01:28:38.128Z,86.40
2018-03-27T01:30:31.046Z,86.35
2018-03-27T01:31:31.038Z,87.30
2018-03-27T01:33:23.935Z,87.21
2018-03-27T01:34:23.948Z,87.21
2018-03-27T01:36:17.070Z,87.40
2018-03-27T01:37:17.048Z,87.35
2018-03-27T01:39:09.952Z,86.49
2018-03-27T01:40:09.950Z,86.07
2018-03-27T01:42:02.870Z,86.45
2018-03-27T01:43:02.860Z,86.40
2018-03-27T01:44:55.762Z,85.88
2018-03-27T01:45:55.778Z,86.35
2018-03-27T01:47:48.689Z,86.40
2018-03-27T01:48:48.686Z,86.49
2018-03-27T01:50:41.600Z,85.93
2018-03-27T01:51:41.594Z,85.83
2018-03-27T01:53:34.492Z,85.55
2018-03-27T01:54:34.508Z,86.02
2018-03-27T01:56:27.420Z,85.74
2018-03-27T01:57:27.416Z,85.93
2018-03-27T01:59:20.313Z,85.64
2018-03-27T02:00:20.326Z,85.69
2018-03-27T02:02:13.245Z,85.93
2018-03-27T02:03:13.239Z,85.64
2018-03-27T02:05:06.132Z,85.93
2018-03-27T02:06:06.174Z,85.74
2018-03-27T02:07:59.060Z,85.55
2018-03-27T02:08:59.054Z,85.45
2018-03-27T02:10:51.970Z,85.55
2018-03-27T02:11:51.965Z,85.83
2018-03-27T02:13:44.863Z,85.83
2018-03-27T02:14:44.876Z,85.60
2018-03-27T02:16:38.783Z,86.02
2018-03-27T02:17:38.778Z,85.74
2018-03-27T02:19:31.672Z,85.17
2018-03-27T02:20:31.689Z,85.31
2018-03-27T02:22:24.607Z,85.60
2018-03-27T02:23:24.603Z,85.78
2018-03-27T02:25:17.504Z,85.78
2018-03-27T02:26:17.511Z,85.88
2018-03-27T02:28:10.428Z,85.78
2018-03-27T02:29:10.422Z,85.88
2018-03-27T02:31:03.334Z,85.69
2018-03-27T02:32:03.337Z,86.07
2018-03-27T02:34:03.543Z,85.97
2018-03-27T02:35:03.560Z,85.93
2018-03-27T02:36:49.351Z,85.64
2018-03-27T02:37:56.476Z,85.41
2018-03-27T02:39:42.250Z,85.93
2018-03-27T02:40:42.259Z,85.74
2018-03-27T02:42:35.173Z,85.55
2018-03-27T02:43:35.167Z,85.26
2018-03-27T02:45:28.061Z,85.50
2018-03-27T02:46:28.075Z,85.69
2018-03-27T02:48:20.990Z,85.69
2018-03-27T02:49:20.986Z,85.88
2018-03-27T02:51:13.899Z,85.41
2018-03-27T02:52:13.894Z,85.78
2018-03-27T02:54:06.790Z,86.07
2018-03-27T02:55:06.804Z,85.69
2018-03-27T02:56:59.718Z,85.50
2018-03-27T02:57:59.709Z,85.50
2018-03-27T02:59:52.602Z,85.69
2018-03-27T03:00:52.619Z,85.88
2018-03-27T03:02:45.532Z,85.69
2018-03-27T03:03:45.528Z,85.60
2018-03-27T03:05:38.421Z,85.97
2018-03-27T03:06:38.434Z,85.97
2018-03-27T03:08:31.359Z,85.88
2018-03-27T03:09:31.345Z,85.69
2018-03-27T03:11:24.258Z,85.22
2018-03-27T03:12:24.254Z,85.50
2018-03-27T03:14:17.365Z,85.31
2018-03-27T03:15:17.379Z,85.13
2018-03-27T03:17:10.292Z,85.13
2018-03-27T03:18:10.290Z,84.59
2018-03-27T03:20:03.187Z,84.74
2018-03-27T03:21:03.203Z,84.94
2018-03-27T03:22:56.115Z,84.88
2018-03-27T03:23:56.108Z,84.84
2018-03-27T03:25:49.004Z,84.84
2018-03-27T03:26:49.016Z,84.94
2018-03-27T03:28:41.933Z,85.26
2018-03-27T03:29:41.930Z,85.31
2018-03-27T03:31:34.855Z,84.74
2018-03-27T03:32:34.835Z,84.78
2018-03-27T03:34:27.753Z,84.88
2018-03-27T03:35:27.751Z,84.88
2018-03-27T03:37:20.662Z,84.69
2018-03-27T03:38:20.655Z,84.78
2018-03-27T03:40:13.553Z,85.17
2018-03-27T03:41:13.569Z,85.07
2018-03-27T03:43:06.488Z,84.31
2018-03-27T03:44:06.479Z,84.78
2018-03-27T03:45:59.374Z,84.69
2018-03-27T03:46:59.386Z,84.69
2018-03-27T03:48:52.299Z,84.94
2018-03-27T03:49:52.295Z,85.07
2018-03-27T03:51:45.221Z,84.74
2018-03-27T03:52:45.206Z,84.55
2018-03-27T03:54:38.251Z,84.94
2018-03-27T03:55:38.276Z,84.94
2018-03-27T03:57:31.180Z,85.41
2018-03-27T03:58:31.181Z,85.13
2018-03-27T04:00:24.133Z,85.22
2018-03-27T04:01:24.090Z,85.45
2018-03-27T04:03:17.001Z,85.17
2018-03-27T04:04:16.996Z,85.22
2018-03-27T04:06:09.892Z,85.13
2018-03-27T04:07:09.907Z,85.13
2018-03-27T04:09:02.821Z,85.64
2018-03-27T04:10:02.819Z,85.22
2018-03-27T04:11:55.976Z,85.07
2018-03-27T04:12:55.960Z,85.36
2018-03-27T04:14:48.857Z,85.74
2018-03-27T04:15:48.872Z,84.69
2018-03-27T04:17:41.786Z,85.13
2018-03-27T04:18:41.807Z,85.69
2018-03-27T04:20:34.675Z,85.97
2018-03-27T04:21:34.700Z,85.69
2018-03-27T04:23:27.607Z,85.69
2018-03-27T04:24:27.601Z,85.88
2018-03-27T04:26:20.497Z,85.50
2018-03-27T04:27:20.511Z,85.83
2018-03-27T04:29:13.427Z,84.94
2018-03-27T04:30:13.426Z,85.69
2018-03-27T04:32:06.357Z,85.78
2018-03-27T04:33:06.336Z,85.78
2018-03-27T04:34:59.307Z,85.74
2018-03-27T04:35:59.254Z,86.02
2018-03-27T04:37:52.160Z,85.36
2018-03-27T04:38:52.162Z,85.88
2018-03-27T04:40:45.102Z,86.07
2018-03-27T04:41:45.066Z,85.69
2018-03-27T04:43:37.981Z,85.97
2018-03-27T04:44:37.976Z,85.88
2018-03-27T04:46:30.878Z,85.50
2018-03-27T04:47:30.891Z,85.88
2018-03-27T04:49:23.803Z,85.97
2018-03-27T04:50:23.800Z,85.55
2018-03-27T04:52:16.697Z,85.45
2018-03-27T04:53:16.711Z,85.13
2018-03-27T04:55:09.624Z,85.36
2018-03-27T04:56:09.619Z,85.45
2018-03-27T04:58:02.535Z,85.17
2018-03-27T04:59:02.530Z,85.41
2018-03-27T05:00:55.425Z,85.13
2018-03-27T05:01:55.440Z,85.78
2018-03-27T05:03:48.350Z,85.97
2018-03-27T05:04:48.347Z,85.88
2018-03-27T05:06:41.246Z,85.78
2018-03-27T05:07:41.257Z,85.41
2018-03-27T05:09:34.171Z,85.69
2018-03-27T05:10:34.168Z,85.74
2018-03-27T05:12:27.062Z,85.74
2018-03-27T05:13:27.077Z,85.64
2018-03-27T05:15:19.997Z,85.55
2018-03-27T05:16:19.988Z,85.07
2018-03-27T05:18:12.906Z,84.98
2018-03-27T05:19:12.899Z,84.98
2018-03-27T05:21:05.795Z,84.98
2018-03-27T05:22:05.811Z,84.88
2018-03-27T05:23:58.725Z,85.07
2018-03-27T05:24:58.719Z,85.17
2018-03-27T05:26:51.615Z,84.78
2018-03-27T05:27:51.630Z,84.59
2018-03-27T05:29:44.540Z,85.13
2018-03-27T05:30:44.539Z,85.97
2018-03-27T05:32:37.432Z,85.50
2018-03-27T05:33:37.446Z,86.07
2018-03-27T05:35:30.359Z,86.45
2018-03-27T05:36:30.355Z,87.40
2018-03-27T05:38:23.271Z,86.55
2018-03-27T05:39:23.267Z,87.40
2018-03-27T05:41:16.165Z,87.30
2018-03-27T05:42:16.184Z,87.30
2018-03-27T05:44:09.095Z,86.83
2018-03-27T05:45:09.087Z,87.21
2018-03-27T05:47:01.987Z,86.11
2018-03-27T05:48:01.998Z,86.59
2018-03-27T05:49:54.913Z,86.21
2018-03-27T05:50:54.907Z,86.30
2018-03-27T05:52:48.011Z,86.21
2018-03-27T05:53:48.026Z,85.74
2018-03-27T05:55:40.935Z,85.55
2018-03-27T05:56:40.932Z,85.45
2018-03-27T05:58:33.852Z,85.55
2018-03-27T05:59:33.847Z,85.64
2018-03-27T06:01:26.742Z,85.83
2018-03-27T06:02:26.761Z,85.74
2018-03-27T06:04:19.671Z,85.74
2018-03-27T06:05:19.667Z,85.88
2018-03-27T06:07:12.636Z,86.49
2018-03-27T06:08:12.579Z,86.68
2018-03-27T06:10:05.491Z,85.74
2018-03-27T06:11:05.488Z,85.74
2018-03-27T06:12:58.382Z,86.21
2018-03-27T06:13:58.397Z,86.30
2018-03-27T06:15:51.310Z,86.02
2018-03-27T06:16:51.309Z,85.83
2018-03-27T06:18:44.225Z,85.74
2018-03-27T06:19:44.215Z,85.93
2018-03-27T06:21:37.118Z,86.02
2018-03-27T06:22:37.131Z,85.74
2018-03-27T06:24:30.048Z,85.21
2018-03-27T06:25:30.042Z,85.02
2018-03-27T06:27:22.940Z,84.92
2018-03-27T06:28:22.953Z,84.74
2018-03-27T06:30:15.868Z,84.55
2018-03-27T06:31:15.865Z,84.31
2018-03-27T06:33:08.760Z,84.50
2018-03-27T06:34:08.775Z,84.59
2018-03-27T06:36:01.688Z,84.64
2018-03-27T06:37:01.686Z,84.74
2018-03-27T06:38:54.602Z,84.45
2018-03-27T06:39:54.598Z,84.83
2018-03-27T06:41:47.494Z,84.64
2018-03-27T06:42:47.507Z,84.64
2018-03-27T06:44:40.421Z,83.97
2018-03-27T06:45:40.420Z,83.88
2018-03-27T06:47:33.315Z,83.97
2018-03-27T06:48:33.336Z,83.40
2018-03-27T06:50:26.244Z,82.84
2018-03-27T06:51:26.241Z,82.65
2018-03-27T06:53:19.137Z,83.03
2018-03-27T06:54:19.154Z,83.03
2018-03-27T06:56:12.079Z,83.78
2018-03-27T06:57:12.071Z,83.59
2018-03-27T06:59:05.036Z,83.50
2018-03-27T07:00:04.989Z,83.64
2018-03-27T07:01:57.884Z,82.46
2018-03-27T07:02:57.899Z,82.27
2018-03-27T07:04:50.814Z,82.59
2018-03-27T07:05:50.819Z,82.50
2018-03-27T07:07:43.737Z,81.93
2018-03-27T07:08:43.726Z,82.03
2018-03-27T07:10:36.696Z,81.98
2018-03-27T07:11:36.678Z,81.45
2018-03-27T07:13:29.572Z,81.84
2018-03-27T07:14:29.553Z,82.59
2018-03-27T07:16:22.470Z,82.21
2018-03-27T07:17:22.482Z,82.31
2018-03-27T07:19:15.426Z,80.41
2018-03-27T07:20:15.381Z,80.60
2018-03-27T07:22:08.277Z,81.74
2018-03-27T07:23:08.295Z,81.65
2018-03-27T07:25:01.250Z,81.93
2018-03-27T07:26:01.252Z,82.12
2018-03-27T07:27:54.146Z,81.97
2018-03-27T07:28:54.161Z,81.68
2018-03-27T07:30:47.075Z,81.12
2018-03-27T07:31:47.074Z,81.40
2018-03-27T07:33:39.972Z,81.12
2018-03-27T07:34:39.989Z,80.16
2018-03-27T07:36:32.907Z,80.26
2018-03-27T07:37:32.907Z,79.41
2018-03-27T07:39:25.891Z,79.97
2018-03-27T07:40:25.854Z,79.69
2018-03-27T07:42:18.749Z,79.92
2018-03-27T07:43:18.765Z,79.54
2018-03-27T07:45:11.717Z,79.35
2018-03-27T07:46:11.722Z,78.50
2018-03-27T07:48:04.773Z,78.69
2018-03-27T07:49:04.790Z,78.63
2018-03-27T07:50:57.734Z,78.25
2018-03-27T07:51:58.921Z,77.20
2018-03-27T07:53:51.122Z,77.68
2018-03-27T07:54:51.139Z,77.01
2018-03-27T07:56:44.057Z,76.73
2018-03-27T07:57:44.056Z,76.82
2018-03-27T07:59:37.193Z,76.54
2018-03-27T08:00:37.195Z,76.44
2018-03-27T08:02:30.099Z,76.06
2018-03-27T08:03:30.120Z,76.48
2018-03-27T08:05:23.046Z,76.57
2018-03-27T08:06:23.046Z,76.39
2018-03-27T08:08:15.949Z,76.20
2018-03-27T08:09:15.960Z,76.10
2018-03-27T08:11:09.451Z,76.20
2018-03-27T08:12:09.375Z,76.39
2018-03-27T08:14:02.276Z,75.85
2018-03-27T08:15:02.292Z,76.04
2018-03-27T08:16:55.212Z,75.85
2018-03-27T08:17:55.210Z,75.09
2018-03-27T08:19:48.128Z,74.90
2018-03-27T08:20:48.128Z,75.19
2018-03-27T08:22:41.065Z,74.52
2018-03-27T08:23:41.083Z,73.66
2018-03-27T08:25:34.000Z,73.28
2018-03-27T08:26:34.001Z,73.76
2018-03-27T08:28:26.902Z,73.95
2018-03-27T08:29:26.921Z,73.38
2018-03-27T08:31:19.840Z,74.10
2018-03-27T08:32:19.840Z,74.77
2018-03-27T08:34:12.925Z,75.05
2018-03-27T08:35:12.945Z,75.43
2018-03-27T08:37:05.865Z,75.62
2018-03-27T08:38:05.865Z,76.04
2018-03-27T08:39:58.791Z,76.04
2018-03-27T08:40:58.783Z,75.57
2018-03-27T08:42:51.776Z,74.71
2018-03-27T08:43:51.780Z,75.19
2018-03-27T08:45:44.698Z,74.43
2018-03-27T08:46:44.698Z,75.09
2018-03-27T08:48:37.619Z,75.04
2018-03-27T08:49:37.617Z,74.37
2018-03-27T08:51:30.534Z,73.51
2018-03-27T08:52:30.534Z,73.32
2018-03-27T08:54:23.610Z,73.80
2018-03-27T08:55:23.644Z,72.85
2018-03-27T08:57:16.549Z,73.07
2018-03-27T08:58:16.546Z,72.75
2018-03-27T09:00:09.470Z,72.37
2018-03-27T09:01:09.469Z,71.98
2018-03-27T09:03:02.374Z,73.03
2018-03-27T09:04:02.391Z,73.61
2018-03-27T09:05:55.309Z,74.75
2018-03-27T09:06:55.312Z,74.84
2018-03-27T09:08:48.209Z,74.40
2018-03-27T09:09:48.228Z,74.69
2018-03-27T09:11:42.296Z,73.93
2018-03-27T09:12:41.879Z,72.50
2018-03-27T09:14:34.784Z,71.64
2018-03-27T09:15:34.803Z,72.02
2018-03-27T09:17:27.734Z,72.46
2018-03-27T09:18:27.724Z,72.69
2018-03-27T09:20:20.906Z,72.21
2018-03-27T09:21:20.644Z,71.70
2018-03-27T09:23:13.554Z,71.98
2018-03-27T09:24:13.574Z,71.89
2018-03-27T09:26:06.583Z,72.75
2018-03-27T09:27:06.501Z,72.65
2018-03-27T09:29:01.727Z,72.97
2018-03-27T09:29:59.477Z,73.36
2018-03-27T09:31:52.666Z,71.93
2018-03-27T09:32:52.396Z,71.36
2018-03-27T09:34:45.402Z,71.55
2018-03-27T09:35:45.883Z,71.61
2018-03-27T09:37:38.501Z,71.93
2018-03-27T09:38:38.454Z,72.60
2018-03-27T09:40:31.373Z,72.12
2018-03-27T09:41:31.373Z,71.36
2018-03-27T09:43:24.277Z,72.60
2018-03-27T09:44:24.338Z,71.45
2018-03-27T09:46:17.554Z,70.40
2018-03-27T09:47:17.273Z,70.31
2018-03-27T09:49:10.192Z,71.07
2018-03-27T09:50:10.209Z,71.07
2018-03-27T09:52:03.135Z,71.07
2018-03-27T09:53:03.144Z,71.17
2018-03-27T09:54:56.173Z,70.78
2018-03-27T09:55:56.070Z,70.31
2018-03-27T09:57:49.145Z,70.65
2018-03-27T09:58:49.020Z,71.17
2018-03-27T10:00:41.940Z,71.03
2018-03-27T10:01:41.979Z,71.61
2018-03-27T10:03:34.844Z,71.80
2018-03-27T10:04:34.863Z,72.12
2018-03-27T10:06:27.787Z,71.93
2018-03-27T10:07:27.786Z,71.36
2018-03-27T10:09:20.690Z,70.88
2018-03-27T10:10:20.712Z,70.82
2018-03-27T10:12:13.636Z,70.63
2018-03-27T10:13:13.643Z,69.68
2018-03-27T10:15:06.605Z,69.29
2018-03-27T10:16:06.563Z,68.34
2018-03-27T10:17:59.487Z,67.86
2018-03-27T10:18:59.580Z,67.96
2018-03-27T10:20:52.410Z,67.77
2018-03-27T10:21:52.430Z,66.72
2018-03-27T10:23:45.315Z,66.72
2018-03-27T10:24:45.334Z,67.29
2018-03-27T10:26:38.256Z,68.02
2018-03-27T10:27:38.260Z,68.69
2018-03-27T10:29:31.159Z,69.17
2018-03-27T10:30:31.509Z,69.26
2018-03-27T10:33:24.138Z,68.21
2018-03-27T10:35:17.016Z,68.40
2018-03-27T10:36:17.033Z,68.78
2018-03-27T10:38:09.958Z,69.42
2018-03-27T10:39:10.052Z,69.13
2018-03-27T10:41:02.901Z,69.04
2018-03-27T10:42:02.903Z,69.60
2018-03-27T10:43:55.806Z,69.70
2018-03-27T10:44:55.826Z,69.93
2018-03-27T10:46:48.749Z,68.21
2018-03-27T10:47:48.744Z,67.93
2018-03-27T10:49:41.668Z,67.16
2018-03-27T10:50:41.689Z,67.16
2018-03-27T10:52:34.808Z,68.21
2018-03-27T10:53:34.631Z,68.30
2018-03-27T10:55:27.576Z,68.53
2018-03-27T10:56:27.558Z,68.44
2018-03-27T10:58:20.481Z,64.43
2018-03-27T10:59:20.480Z,64.53
2018-03-27T11:01:13.460Z,63.83
2018-03-27T11:02:13.430Z,63.54
2018-03-27T11:04:07.177Z,64.50
2018-03-27T11:05:06.367Z,63.73
2018-03-27T11:06:59.291Z,65.00
2018-03-27T11:07:59.317Z,65.29
2018-03-27T11:09:52.194Z,64.43
2018-03-27T11:10:52.457Z,63.80
2018-03-27T11:12:45.261Z,62.84
2018-03-27T11:13:45.257Z,62.46
2018-03-27T11:15:38.160Z,61.51
2018-03-27T11:16:38.219Z,61.32
2018-03-27T11:18:31.173Z,61.32
2018-03-27T11:19:31.112Z,60.75
2018-03-27T11:21:24.041Z,61.41
2018-03-27T11:22:24.043Z,61.51
2018-03-27T11:24:16.949Z,59.41
2018-03-27T11:25:16.971Z,59.25
2018-03-27T11:27:09.894Z,59.41
2018-03-27T11:28:09.891Z,60.30
2018-03-27T11:30:02.803Z,58.87
2018-03-27T11:31:02.820Z,59.73
2018-03-27T11:32:55.942Z,58.48
2018-03-27T11:33:55.936Z,57.72
2018-03-27T11:35:48.842Z,56.55
2018-03-27T11:36:48.930Z,57.06
2018-03-27T11:38:41.849Z,57.43
2018-03-27T11:39:41.834Z,57.24
2018-03-27T11:41:34.795Z,56.46
2018-03-27T11:42:34.773Z,56.58
2018-03-27T11:44:27.650Z,55.43
2018-03-27T11:45:27.672Z,55.72
2018-03-27T11:47:20.606Z,55.82
2018-03-27T11:48:20.653Z,55.27
2018-03-27T11:50:13.472Z,56.01
2018-03-27T11:51:13.527Z,55.53
2018-03-27T11:53:06.462Z,53.24
2018-03-27T11:54:06.429Z,53.24
2018-03-27T11:55:59.378Z,52.57
2018-03-27T11:56:59.397Z,52.67
2018-03-27T11:58:52.334Z,52.57
2018-03-27T11:59:52.316Z,52.38
2018-03-27T12:01:45.231Z,52.00
2018-03-27T12:02:45.199Z,52.86
2018-03-27T12:04:38.254Z,51.62
2018-03-27T12:05:38.274Z,51.14
2018-03-27T12:07:31.211Z,51.07
2018-03-27T12:08:31.201Z,51.93
2018-03-27T12:10:24.139Z,51.83
2018-03-27T12:11:24.173Z,50.31
2018-03-27T12:13:17.106Z,48.11
2018-03-27T12:14:17.090Z,46.48
2018-03-27T12:16:09.991Z,46.47
2018-03-27T12:17:10.017Z,47.89
2018-03-27T12:19:03.923Z,48.57
2018-03-27T12:20:03.916Z,48.85
2018-03-27T12:21:56.935Z,49.64
2018-03-27T12:22:56.940Z,48.21
2018-03-27T12:24:49.807Z,48.37
2018-03-27T12:25:49.864Z,48.28
2018-03-27T12:27:42.704Z,48.66
2018-03-27T12:28:42.716Z,48.08
2018-03-27T12:30:35.608Z,48.47
2018-03-27T12:31:35.627Z,48.47
2018-03-27T12:33:28.569Z,48.94
2018-03-27T12:34:28.572Z,48.75
2018-03-27T12:36:21.511Z,48.78
2018-03-27T12:37:21.506Z,48.02
2018-03-27T12:39:14.448Z,48.78
2018-03-27T12:40:14.449Z,48.39
2018-03-27T12:42:07.376Z,47.32
2018-03-27T12:44:20.282Z,46.84
2018-03-27T12:45:20.310Z,47.42
2018-03-27T12:47:13.226Z,47.80
2018-03-27T12:48:13.232Z,46.84
2018-03-27T12:50:06.141Z,48.78
2018-03-27T12:51:06.159Z,48.88
2018-03-27T12:52:59.090Z,48.42
2018-03-27T12:53:59.091Z,48.61
2018-03-27T12:55:52.029Z,46.34
2018-03-27T12:56:52.042Z,44.91
2018-03-27T12:58:44.952Z,45.67
2018-03-27T12:59:44.951Z,45.39
2018-03-27T13:01:37.859Z,45.01
2018-03-27T13:02:37.881Z,44.45
2018-03-27T13:04:30.807Z,44.55
2018-03-27T13:05:30.829Z,44.36
2018-03-27T13:07:24.235Z,42.73
2018-03-27T13:08:24.236Z,42.25
2018-03-27T13:10:17.146Z,43.59
2018-03-27T13:11:17.168Z,43.21
2018-03-27T13:13:10.642Z,42.64
2018-03-27T13:14:10.745Z,42.44
2018-03-27T13:16:03.474Z,42.35
2018-03-27T13:17:03.496Z,41.78
2018-03-27T13:18:56.453Z,42.44
2018-03-27T13:19:56.431Z,42.35
2018-03-27T13:21:49.928Z,42.27
2018-03-27T13:22:49.866Z,42.47
2018-03-27T13:24:42.809Z,42.08
2018-03-27T13:25:42.800Z,41.70
2018-03-27T13:27:36.252Z,40.94
2018-03-27T13:28:36.258Z,41.70
2018-03-27T13:30:29.168Z,41.24
2018-03-27T13:31:29.207Z,40.65
2018-03-27T13:33:22.291Z,39.50
2018-03-27T13:34:22.295Z,39.89
2018-03-27T13:36:15.206Z,41.32
2018-03-27T13:37:15.228Z,41.22
2018-03-27T13:39:08.166Z,39.67
2018-03-27T13:40:08.167Z,40.15
2018-03-27T13:42:01.247Z,40.72
2018-03-27T13:43:01.273Z,40.70
2018-03-27T13:44:54.203Z,41.38
2018-03-27T13:45:54.210Z,42.04
2018-03-27T13:47:47.138Z,42.04
2018-03-27T13:48:47.142Z,42.04
2018-03-27T13:50:40.053Z,42.60
2018-03-27T13:51:40.073Z,42.60
2018-03-27T13:53:33.007Z,42.69
2018-03-27T13:54:33.005Z,43.55
2018-03-27T13:56:25.914Z,43.65
2018-03-27T13:57:25.938Z,43.36
2018-03-27T13:59:18.872Z,43.07
2018-03-27T14:00:18.929Z,43.26
2018-03-27T14:02:11.962Z,43.74
2018-03-27T14:03:11.983Z,42.97
2018-03-27T14:05:04.910Z,42.79
2018-03-27T14:06:04.965Z,42.88
2018-03-27T14:07:57.850Z,43.62
2018-03-27T14:08:57.846Z,44.10
2018-03-27T14:10:50.762Z,43.91
2018-03-27T14:11:50.779Z,43.72
2018-03-27T14:13:43.721Z,43.72
2018-03-27T14:14:43.721Z,44.38
2018-03-27T14:16:36.631Z,44.58
2018-03-27T14:17:36.654Z,44.20
2018-03-27T14:19:29.578Z,43.53
2018-03-27T14:20:29.581Z,43.82
2018-03-27T14:22:22.491Z,43.74
2018-03-27T14:23:22.509Z,43.55
2018-03-27T14:25:15.439Z,43.46
2018-03-27T14:26:15.440Z,43.84
2018-03-27T14:28:08.368Z,43.36
2018-03-27T14:29:08.372Z,42.31
2018-03-27T14:31:01.279Z,42.77
2018-03-27T14:32:01.301Z,43.07
2018-03-27T14:33:54.226Z,43.43
2018-03-27T14:34:54.269Z,42.67
2018-03-27T14:36:47.136Z,43.15
2018-03-27T14:37:47.158Z,43.24
2018-03-27T14:39:40.083Z,44.58
2018-03-27T14:40:40.091Z,44.01
2018-03-27T14:42:32.992Z,43.62
2018-03-27T14:43:33.010Z,44.10
2018-03-27T14:45:25.938Z,44.38
2018-03-27T14:46:25.944Z,43.82
2018-03-27T14:48:18.869Z,43.72
2018-03-27T14:49:18.868Z,43.53
2018-03-27T14:51:11.774Z,43.62
2018-03-27T14:52:11.793Z,44.38
2018-03-27T14:54:04.719Z,44.67
2018-03-27T14:55:04.724Z,44.48
2018-03-27T14:56:57.630Z,44.29
2018-03-27T14:57:57.653Z,44.10
2018-03-27T14:59:50.577Z,43.72
2018-03-27T15:00:50.584Z,43.62
2018-03-27T15:02:43.492Z,43.15
2018-03-27T15:03:43.511Z,43.43
2018-03-27T15:05:36.463Z,43.91
2018-03-27T15:06:36.443Z,44.41
2018-03-27T15:08:29.581Z,43.26
2018-03-27T15:09:29.625Z,42.40
2018-03-27T15:11:22.494Z,42.02
2018-03-27T15:12:22.550Z,42.11
2018-03-27T15:14:15.479Z,43.26
2018-03-27T15:15:15.510Z,42.97
2018-03-27T15:17:08.413Z,43.36
2018-03-27T15:18:08.381Z,43.07
2018-03-27T15:20:01.341Z,42.48
2018-03-27T15:21:01.364Z,42.38
2018-03-27T15:22:54.252Z,42.57
2018-03-27T15:23:54.246Z,42.67
2018-03-27T15:25:47.172Z,42.86
2018-03-27T15:26:47.180Z,42.67
2018-03-27T15:28:40.146Z,42.77
2018-03-27T15:29:40.104Z,43.15
2018-03-27T15:31:33.055Z,43.05
2018-03-27T15:32:33.077Z,43.62
2018-03-27T15:34:25.965Z,43.91
2018-03-27T15:35:26.005Z,44.01
2018-03-27T15:37:19.873Z,42.57
2018-03-27T15:38:19.910Z,42.29
2018-03-27T15:40:12.817Z,42.86
2018-03-27T15:41:12.823Z,42.86
2018-03-27T15:43:05.735Z,42.67
2018-03-27T15:44:05.756Z,42.86
2018-03-27T15:45:58.679Z,43.15
2018-03-27T15:46:58.681Z,42.96
2018-03-27T15:48:51.629Z,43.72
2018-03-27T15:49:51.610Z,43.82
2018-03-27T15:51:44.516Z,44.08
2018-03-27T15:52:44.535Z,44.27
2018-03-27T15:54:37.465Z,44.65
2018-03-27T15:55:37.471Z,43.98
2018-03-27T15:57:30.377Z,44.56
2018-03-27T15:58:30.399Z,44.65
2018-03-27T16:00:23.322Z,45.22
2018-03-27T16:01:23.322Z,45.42
2018-03-27T16:03:16.230Z,46.75
2018-03-27T16:04:16.249Z,47.52
2018-03-27T16:06:09.174Z,47.80
2018-03-27T16:07:09.177Z,48.47
2018-03-27T16:09:02.300Z,48.47
2018-03-27T16:10:02.298Z,47.92
2018-03-27T16:11:55.208Z,48.08
2018-03-27T16:12:55.222Z,47.80
2018-03-27T16:14:48.163Z,47.03
2018-03-27T16:15:48.163Z,48.08
2018-03-27T16:17:41.065Z,48.18
2018-03-27T16:18:41.082Z,48.18
2018-03-27T16:20:34.019Z,47.99
2018-03-27T16:21:34.024Z,47.92
2018-03-27T16:23:26.921Z,47.99
2018-03-27T16:24:26.940Z,47.99
2018-03-27T16:26:20.069Z,47.32
2018-03-27T16:27:20.124Z,47.42
2018-03-27T16:29:12.992Z,48.08
2018-03-27T16:30:12.994Z,48.66
2018-03-27T16:32:05.908Z,49.13
2018-03-27T16:33:06.003Z,49.04
2018-03-27T16:34:58.852Z,49.23
2018-03-27T16:35:58.851Z,49.23
2018-03-27T16:37:51.798Z,49.13
2018-03-27T16:38:51.779Z,49.04
2018-03-27T16:40:45.703Z,48.47
2018-03-27T16:41:45.704Z,48.57
2018-03-27T16:43:38.958Z,48.75
2018-03-27T16:44:38.908Z,49.04
2018-03-27T16:46:31.832Z,49.99
2018-03-27T16:47:31.830Z,50.76
2018-03-27T16:49:24.754Z,50.38
2018-03-27T16:50:24.772Z,51.04
2018-03-27T16:52:17.658Z,51.71
2018-03-27T16:53:17.678Z,51.78
2018-03-27T16:55:10.720Z,51.43
2018-03-27T16:56:10.725Z,51.50
2018-03-27T16:58:03.628Z,51.31
2018-03-27T16:59:03.647Z,51.21
2018-03-27T17:00:56.568Z,52.45
2018-03-27T17:01:56.573Z,52.26
2018-03-27T17:03:49.474Z,54.45
2018-03-27T17:04:49.497Z,54.36
2018-03-27T17:06:42.417Z,55.41
2018-03-27T17:07:42.418Z,56.36
2018-03-27T17:09:35.340Z,56.93
2018-03-27T17:10:35.353Z,57.60
2018-03-27T17:12:28.248Z,59.70
2018-03-27T17:13:28.267Z,59.31
2018-03-27T17:15:21.192Z,59.51
2018-03-27T17:16:21.187Z,60.55
2018-03-27T17:18:14.097Z,61.51
2018-03-27T17:19:14.117Z,62.75
2018-03-27T17:21:07.039Z,63.23
2018-03-27T17:22:07.039Z,63.99
2018-03-27T17:23:59.943Z,64.75
2018-03-27T17:24:59.970Z,65.13
2018-03-27T17:26:52.887Z,66.05
2018-03-27T17:27:52.892Z,66.53
2018-03-27T17:29:45.823Z,66.82
2018-03-27T17:30:45.819Z,66.63
2018-03-27T17:32:38.721Z,67.96
2018-03-27T17:33:38.741Z,68.72
2018-03-27T17:35:31.659Z,69.58
2018-03-27T17:36:31.664Z,70.53
2018-03-27T17:38:24.566Z,70.44
2018-03-27T17:39:24.588Z,71.39
2018-03-27T17:41:17.506Z,70.53
2018-03-27T17:42:17.511Z,70.69
2018-03-27T17:44:11.412Z,70.78
2018-03-27T17:45:11.428Z,71.45
2018-03-27T17:47:04.351Z,70.88
2018-03-27T17:48:04.351Z,71.93
2018-03-27T17:49:57.274Z,71.64
2018-03-27T17:50:57.298Z,72.02
2018-03-27T17:52:50.185Z,73.89
2018-03-27T17:53:50.202Z,73.70
2018-03-27T17:55:43.122Z,74.46
2018-03-27T17:56:43.123Z,74.75
2018-03-27T17:58:36.520Z,75.51
2018-03-27T17:59:36.558Z,75.70
2018-03-27T18:01:29.465Z,76.46
2018-03-27T18:02:29.475Z,76.18
2018-03-27T18:04:22.368Z,76.42
2018-03-27T18:05:22.385Z,76.37
2018-03-27T18:07:15.307Z,76.65
2018-03-27T18:08:15.307Z,77.76
2018-03-27T18:10:08.232Z,77.19
2018-03-27T18:11:08.229Z,77.37
2018-03-27T18:13:01.136Z,77.95
2018-03-27T18:14:01.158Z,77.95
2018-03-27T18:15:54.079Z,78.14
2018-03-27T18:16:54.081Z,78.80
2018-03-27T18:18:47.003Z,78.90
2018-03-27T18:19:46.997Z,78.61
2018-03-27T18:21:39.921Z,78.33
2018-03-27T18:22:39.918Z,78.23
2018-03-27T18:24:32.820Z,78.04
2018-03-27T18:25:32.842Z,78.71
2018-03-27T18:27:25.764Z,78.14
2018-03-27T18:28:25.760Z,77.95
2018-03-27T18:30:18.687Z,78.42
2018-03-27T18:31:18.686Z,78.61
2018-03-27T18:33:11.590Z,78.42
2018-03-27T18:34:11.608Z,78.14
2018-03-27T18:36:04.711Z,78.61